Last 30 Days

Squaw-Red Dog 6200'

Daily Data | America/Los_Angeles
as of 10/27/20 7:18 PM PDT
Date Daily Max Temp (°F) Time of Max Temp Daily Min Temp (°F) Time of Min Temp Daily Rain (In) New Snow (in) SnowDepth (in) Wind Spd (mph) Daily Max Wind (mph) Time of Max Wind Max Wind Dir (°) Max RH (%) Min RH (%) Wet Bulb (°F) WetB Hrs <28F (hrs) Bat Volt Min Day (V)
10/26/20 46.9 1507 21.7 0645 0.00 78.2 285.8 4.2 19.1 0027 SE | 141 79 11 25.8 - 12.5
10/25/20 45.7 1501 26.3 2340 0.00 79.6 287.6 4.8 21.4 2243 SW | 217 96 20 29.2 - 12.5
10/24/20 61.7 1448 27.9 0723 0.00 79.4 289.1 2.7 17.6 1516 NE | 38 96 19 35.7 1.9 12.5
10/23/20 66.0 1423 26.5 0635 0.00 82.2 292.0 1.8 12.3 1500 NE | 36 97 19 35.7 18.8 12.5
10/22/20 61.7 1459 30.3 0733 0.00 83.2 294.7 2.5 15.0 1518 SSW | 212 72 29 36.1 2.5 12.5
10/21/20 71.1 1430 32.3 0737 0.00 80.8 290.3 2.3 15.3 1509 NNW | 330 71 14 39.3 0.0 12.5
10/20/20 75.7 1620 32.2 0721 0.00 83.0 294.5 1.6 10.2 1707 NNW | 338 78 11 40.2 0.0 12.5
10/19/20 74.6 1549 32.4 0729 0.00 81.9 290.8 1.8 11.8 1132 NNE | 13 76 16 40.6 0.0 12.5
10/18/20 72.8 1337 34.9 0805 0.00 76.3 284.7 2.8 14.8 1156 N | 0 66 16 41.2 0.0 12.6
10/17/20 76.3 1402 31.4 0757 0.00 76.1 283.2 2.8 16.6 1439 NNW | 343 73 14 40.0 0.0 12.6
10/16/20 72.3 1409 30.2 0736 0.00 76.9 284.7 1.4 10.8 1510 SSE | 150 83 16 38.6 0.0 12.5
10/15/20 70.7 1457 35.0 0724 0.00 78.5 287.8 1.4 10.9 1430 SE | 138 89 23 40.9 0.0 12.5
10/14/20 76.6 1631 35.5 0636 0.00 73.2 279.6 1.8 14.7 1500 SSW | 196 82 19 43.2 0.0 12.5
10/13/20 72.6 1451 34.1 0640 0.00 69.4 274.8 3.1 15.0 1211 NNW | 332 65 23 41.5 0.0 12.5
10/12/20 71.7 1429 33.7 0651 0.00 74.1 279.5 2.2 15.3 1321 N | 1 84 15 39.8 0.0 12.5
10/11/20 69.4 1432 34.9 0810 0.00 73.6 278.6 2.4 17.3 0014 NNE | 25 95 20 43.1 0.0 12.2
10/10/20 58.0 1359 38.4 0353 0.00 74.5 281.6 6.6 30.1 1732 NNE | 14 73 34 43.0 0.0 12.5
10/9/20 71.8 1336 33.3 0730 0.00 72.4 277.4 2.5 15.6 1733 NNE | 33 62 16 39.0 0.0 12.5
10/8/20 68.1 1350 35.8 0541 0.00 72.6 275.8 1.9 13.6 1320 NNW | 348 51 16 38.6 0.0 12.5
10/7/20 75.3 1437 37.8 0804 0.00 69.5 269.4 2.3 13.9 1550 N | 349 55 9 40.8 0.0 12.5
10/6/20 77.2 1337 36.3 0707 0.00 81.6 289.2 1.8 14.6 1233 N | 2 64 7 41.0 0.0 12.5
10/5/20 77.0 1419 34.6 0605 0.00 83.6 293.6 2.2 12.9 1510 NE | 42 56 11 40.5 0.0 12.4
10/4/20 76.8 1336 37.5 0633 0.00 78.8 287.0 2.0 16.6 1428 NNW | 340 61 12 41.9 0.0 12.5
10/3/20 80.8 1620 38.0 0701 0.00 84.6 296.7 1.7 11.3 1354 SSW | 197 55 10 43.1 0.0 12.5
10/2/20 83.3 1506 39.0 0713 0.00 83.0 293.6 1.2 10.7 1438 SE | 135 56 8 43.1 0.0 12.5
10/1/20 82.4 1625 38.8 0658 0.00 84.2 293.5 1.4 12.4 1442 S | 170 68 10 43.7 0.0 12.5
9/30/20 79.6 1613 40.3 0722 0.00 77.5 281.9 1.1 11.4 1301 S | 178 74 19 45.4 0.0 12.5
9/29/20 77.8 1454 39.0 0641 0.00 79.9 285.8 2.3 15.4 1555 NNE | 17 62 19 44.4 0.0 12.4
9/28/20 74.8 1713 46.4 2347 0.00 80.6 288.8 2.0 10.5 0636 SE | 133 48 16 44.3 0.0 12.4
9/27/20 70.2 1557 37.6 0700 0.00 79.8 287.4 2.7 15.1 1605 SSE | 149 89 25 45.2 0.0 12.4
Max 83.3 - 46.4 - 0.00 84.6 296.7 6.6 30.1 - - 97 34 45.4 18.8 12.6
Avg - - - - - 78.3 286.0 2.4 - - - - - 40.2 - -
Min 45.7 - 21.7 - 0.00 69.4 269.4 1.1 10.2 - - 48 7 25.8 0.0 12.2